Overview Statistics Trail Chart Weather Telemetry Raw packets
 

This is the latest recevied weather packets stored in our database for station/object HOWARD. If no packets are shown the sender has not sent any weather packets the latest 10 day(s).

<< 23 24 25 26 27 28 29 >>
Time Temp. Humidity Pressure Rain* Wind** Luminosity Snow
1788314683 12.22° C 45% 1010.2 hPa 0 mm - - -
1788314083 12.22° C 43% 1010.2 hPa 0 mm - - -
1788313483 12.22° C 46% 1010.3 hPa 0 mm - - -
1788312884 12.22° C 47% 1010.3 hPa 0 mm - - -
1788312294 12.22° C 47% 1010.2 hPa 0 mm - - -
1788311683 12.78° C 46% 1010.2 hPa 0 mm - - -
1788311083 12.78° C 45% 1010.2 hPa 0 mm - - -
1788310483 13.33° C 43% 1010.4 hPa 0 mm - - -
1788309883 13.33° C 47% 1010.6 hPa 0 mm - - -
1788309283 12.78° C 48% 1010.5 hPa 0 mm - - -
1788309245 21.67° C 27% 1022.4 hPa 0 mm - - -
1788308683 13.33° C 48% 1010.5 hPa 0 mm - - -
1788308083 13.33° C 51% 1010.7 hPa 0 mm - - -
1788307483 13.33° C 50% 1010.6 hPa 0 mm - - -
1788306883 13.33° C 49% 1010.7 hPa 0 mm - - -
1788306283 15° C 49% 1010.6 hPa 0 mm - - -
1788305683 13.89° C 52% 1010.6 hPa 0 mm - - -
1788305083 13.89° C 51% 1011.3 hPa 0 mm - - -
1788304483 14.44° C 52% 1010.7 hPa 0 mm - - -
1788303883 13.89° C 52% 1010.6 hPa 0 mm - - -
1788303336 13.33° C 54% 1010.8 hPa 0 mm - - -
1788303283 13.33° C 54% 1010.8 hPa 0 mm - - -
1788302718 12.78° C 56% 1011.2 hPa 0 mm - - -
1788302683 12.78° C 56% 1011.2 hPa 0 mm - - -
1788302083 12.78° C 57% 1011.4 hPa 0 mm - - -

* Rain latest hour (hover to see other rain measurements)
** Current wind speed in m/s (hover to see current wind gust speed)